sensor_id;sensor_type;location;lat;lon;timestamp;P1;durP1;ratioP1;P2;durP2;ratioP2
28028;SDS011;15345;59.364;18.016;2023-04-06T00:00:58;7.47;;;4.35;;
28028;SDS011;15345;59.364;18.016;2023-04-06T00:02:17;8.68;;;4.93;;
28028;SDS011;15345;59.364;18.016;2023-04-06T00:03:36;9.43;;;4.78;;
28028;SDS011;15345;59.364;18.016;2023-04-06T00:04:55;4.65;;;4.25;;
28028;SDS011;15345;59.364;18.016;2023-04-06T00:06:14;4.95;;;4.45;;
28028;SDS011;15345;59.364;18.016;2023-04-06T00:07:33;7.93;;;5.00;;
28028;SDS011;15345;59.364;18.016;2023-04-06T00:08:52;5.63;;;4.60;;
28028;SDS011;15345;59.364;18.016;2023-04-06T00:10:11;6.13;;;4.60;;
28028;SDS011;15345;59.364;18.016;2023-04-06T00:11:30;10.73;;;5.70;;
28028;SDS011;15345;59.364;18.016;2023-04-06T00:12:49;7.32;;;4.78;;
28028;SDS011;15345;59.364;18.016;2023-04-06T00:14:08;6.78;;;4.85;;
28028;SDS011;15345;59.364;18.016;2023-04-06T00:15:27;7.57;;;5.07;;
28028;SDS011;15345;59.364;18.016;2023-04-06T00:16:46;5.93;;;4.53;;
28028;SDS011;15345;59.364;18.016;2023-04-06T00:18:05;6.70;;;4.75;;
28028;SDS011;15345;59.364;18.016;2023-04-06T00:19:24;7.15;;;4.55;;
28028;SDS011;15345;59.364;18.016;2023-04-06T00:20:43;5.75;;;4.88;;
28028;SDS011;15345;59.364;18.016;2023-04-06T00:22:01;8.20;;;4.57;;
28028;SDS011;15345;59.364;18.016;2023-04-06T00:23:20;6.43;;;4.72;;
28028;SDS011;15345;59.364;18.016;2023-04-06T00:24:39;9.43;;;4.90;;
28028;SDS011;15345;59.364;18.016;2023-04-06T00:25:58;8.45;;;4.82;;
28028;SDS011;15345;59.364;18.016;2023-04-06T00:27:17;6.38;;;4.43;;
28028;SDS011;15345;59.364;18.016;2023-04-06T00:28:36;5.78;;;5.03;;
28028;SDS011;15345;59.364;18.016;2023-04-06T00:29:55;7.22;;;4.80;;
28028;SDS011;15345;59.364;18.016;2023-04-06T00:31:14;7.15;;;4.65;;
28028;SDS011;15345;59.364;18.016;2023-04-06T00:32:34;9.82;;;4.72;;
28028;SDS011;15345;59.364;18.016;2023-04-06T00:33:53;5.55;;;4.13;;
28028;SDS011;15345;59.364;18.016;2023-04-06T00:35:12;6.90;;;4.90;;
28028;SDS011;15345;59.364;18.016;2023-04-06T00:36:31;5.25;;;4.53;;
28028;SDS011;15345;59.364;18.016;2023-04-06T00:37:50;8.38;;;4.93;;
28028;SDS011;15345;59.364;18.016;2023-04-06T00:39:09;6.85;;;4.65;;
28028;SDS011;15345;59.364;18.016;2023-04-06T00:40:28;6.95;;;4.90;;
28028;SDS011;15345;59.364;18.016;2023-04-06T00:41:49;7.90;;;4.28;;
28028;SDS011;15345;59.364;18.016;2023-04-06T00:43:08;7.15;;;4.68;;
28028;SDS011;15345;59.364;18.016;2023-04-06T00:44:30;6.85;;;4.50;;
28028;SDS011;15345;59.364;18.016;2023-04-06T00:45:50;9.15;;;5.30;;
28028;SDS011;15345;59.364;18.016;2023-04-06T00:47:10;7.90;;;4.75;;
28028;SDS011;15345;59.364;18.016;2023-04-06T00:48:29;7.07;;;4.68;;
28028;SDS011;15345;59.364;18.016;2023-04-06T00:49:49;6.40;;;4.75;;
28028;SDS011;15345;59.364;18.016;2023-04-06T00:51:08;5.15;;;4.63;;
28028;SDS011;15345;59.364;18.016;2023-04-06T00:52:27;9.07;;;4.95;;
28028;SDS011;15345;59.364;18.016;2023-04-06T00:53:46;4.97;;;4.43;;
28028;SDS011;15345;59.364;18.016;2023-04-06T00:55:05;6.68;;;4.45;;
28028;SDS011;15345;59.364;18.016;2023-04-06T00:56:24;4.82;;;4.32;;
28028;SDS011;15345;59.364;18.016;2023-04-06T00:57:44;6.28;;;5.00;;
28028;SDS011;15345;59.364;18.016;2023-04-06T00:59:03;8.90;;;4.63;;
28028;SDS011;15345;59.364;18.016;2023-04-06T01:00:22;7.97;;;4.95;;
28028;SDS011;15345;59.364;18.016;2023-04-06T01:01:41;10.43;;;4.70;;
28028;SDS011;15345;59.364;18.016;2023-04-06T01:03:00;6.93;;;4.80;;
28028;SDS011;15345;59.364;18.016;2023-04-06T01:04:20;6.15;;;4.45;;
28028;SDS011;15345;59.364;18.016;2023-04-06T01:05:41;4.97;;;4.30;;
28028;SDS011;15345;59.364;18.016;2023-04-06T01:07:01;7.57;;;4.72;;
28028;SDS011;15345;59.364;18.016;2023-04-06T01:08:20;5.10;;;4.60;;
28028;SDS011;15345;59.364;18.016;2023-04-06T01:09:39;5.18;;;4.38;;
28028;SDS011;15345;59.364;18.016;2023-04-06T01:11:00;7.20;;;4.68;;
28028;SDS011;15345;59.364;18.016;2023-04-06T01:12:19;7.05;;;4.80;;
28028;SDS011;15345;59.364;18.016;2023-04-06T01:13:38;8.02;;;4.55;;
28028;SDS011;15345;59.364;18.016;2023-04-06T01:14:57;7.75;;;4.15;;
28028;SDS011;15345;59.364;18.016;2023-04-06T01:16:16;4.68;;;4.28;;
28028;SDS011;15345;59.364;18.016;2023-04-06T01:17:35;5.20;;;4.53;;
28028;SDS011;15345;59.364;18.016;2023-04-06T01:18:54;6.00;;;4.50;;
28028;SDS011;15345;59.364;18.016;2023-04-06T01:20:13;5.32;;;4.13;;
28028;SDS011;15345;59.364;18.016;2023-04-06T01:21:33;7.40;;;4.93;;
28028;SDS011;15345;59.364;18.016;2023-04-06T01:22:51;6.90;;;4.47;;
28028;SDS011;15345;59.364;18.016;2023-04-06T01:24:10;6.85;;;4.57;;
28028;SDS011;15345;59.364;18.016;2023-04-06T01:25:29;6.05;;;4.40;;
28028;SDS011;15345;59.364;18.016;2023-04-06T01:26:48;5.35;;;4.10;;
28028;SDS011;15345;59.364;18.016;2023-04-06T01:28:07;5.13;;;4.13;;
28028;SDS011;15345;59.364;18.016;2023-04-06T01:29:26;6.78;;;4.63;;
28028;SDS011;15345;59.364;18.016;2023-04-06T01:30:45;7.68;;;4.95;;
28028;SDS011;15345;59.364;18.016;2023-04-06T01:32:04;6.63;;;4.85;;
28028;SDS011;15345;59.364;18.016;2023-04-06T01:33:23;5.80;;;4.63;;
28028;SDS011;15345;59.364;18.016;2023-04-06T01:34:42;8.82;;;4.72;;
28028;SDS011;15345;59.364;18.016;2023-04-06T01:36:01;7.55;;;4.70;;
28028;SDS011;15345;59.364;18.016;2023-04-06T01:37:20;9.80;;;4.85;;
28028;SDS011;15345;59.364;18.016;2023-04-06T01:38:39;11.48;;;4.82;;
28028;SDS011;15345;59.364;18.016;2023-04-06T01:39:58;7.00;;;4.90;;
28028;SDS011;15345;59.364;18.016;2023-04-06T01:41:17;7.00;;;5.20;;
28028;SDS011;15345;59.364;18.016;2023-04-06T01:42:36;7.18;;;4.85;;
28028;SDS011;15345;59.364;18.016;2023-04-06T01:43:55;5.28;;;4.78;;
28028;SDS011;15345;59.364;18.016;2023-04-06T01:45:14;9.48;;;5.35;;
28028;SDS011;15345;59.364;18.016;2023-04-06T01:46:33;7.38;;;5.03;;
28028;SDS011;15345;59.364;18.016;2023-04-06T01:47:52;8.65;;;5.03;;
28028;SDS011;15345;59.364;18.016;2023-04-06T01:49:11;8.23;;;5.10;;
28028;SDS011;15345;59.364;18.016;2023-04-06T01:50:30;7.47;;;5.20;;
28028;SDS011;15345;59.364;18.016;2023-04-06T01:51:50;12.65;;;5.60;;
28028;SDS011;15345;59.364;18.016;2023-04-06T01:53:08;6.68;;;5.97;;
28028;SDS011;15345;59.364;18.016;2023-04-06T01:54:28;7.72;;;5.15;;
28028;SDS011;15345;59.364;18.016;2023-04-06T01:55:47;7.38;;;5.30;;
28028;SDS011;15345;59.364;18.016;2023-04-06T01:57:06;7.75;;;4.97;;
28028;SDS011;15345;59.364;18.016;2023-04-06T01:58:24;8.48;;;5.93;;
28028;SDS011;15345;59.364;18.016;2023-04-06T01:59:43;9.65;;;5.72;;
28028;SDS011;15345;59.364;18.016;2023-04-06T02:01:02;6.03;;;5.40;;
28028;SDS011;15345;59.364;18.016;2023-04-06T02:02:21;8.02;;;5.40;;
28028;SDS011;15345;59.364;18.016;2023-04-06T02:03:40;10.80;;;5.55;;
28028;SDS011;15345;59.364;18.016;2023-04-06T02:05:00;11.13;;;5.28;;
28028;SDS011;15345;59.364;18.016;2023-04-06T02:06:19;12.57;;;5.70;;
28028;SDS011;15345;59.364;18.016;2023-04-06T02:07:38;12.95;;;5.82;;
28028;SDS011;15345;59.364;18.016;2023-04-06T02:08:57;9.73;;;6.07;;
28028;SDS011;15345;59.364;18.016;2023-04-06T02:10:16;8.95;;;5.65;;
28028;SDS011;15345;59.364;18.016;2023-04-06T02:11:35;9.32;;;5.50;;
28028;SDS011;15345;59.364;18.016;2023-04-06T02:12:54;12.52;;;6.13;;
28028;SDS011;15345;59.364;18.016;2023-04-06T02:14:13;7.82;;;5.32;;
28028;SDS011;15345;59.364;18.016;2023-04-06T02:15:32;9.55;;;5.32;;
28028;SDS011;15345;59.364;18.016;2023-04-06T02:16:51;8.55;;;5.75;;
28028;SDS011;15345;59.364;18.016;2023-04-06T02:18:09;11.60;;;5.95;;
28028;SDS011;15345;59.364;18.016;2023-04-06T02:19:29;9.55;;;5.35;;
28028;SDS011;15345;59.364;18.016;2023-04-06T02:20:48;6.57;;;5.40;;
28028;SDS011;15345;59.364;18.016;2023-04-06T02:22:06;12.90;;;5.43;;
28028;SDS011;15345;59.364;18.016;2023-04-06T02:23:25;11.13;;;6.20;;
28028;SDS011;15345;59.364;18.016;2023-04-06T02:24:45;11.32;;;6.07;;
28028;SDS011;15345;59.364;18.016;2023-04-06T02:26:05;7.97;;;5.35;;
28028;SDS011;15345;59.364;18.016;2023-04-06T02:27:24;9.23;;;5.88;;
28028;SDS011;15345;59.364;18.016;2023-04-06T02:28:43;6.15;;;5.55;;
28028;SDS011;15345;59.364;18.016;2023-04-06T02:30:02;11.80;;;5.45;;
28028;SDS011;15345;59.364;18.016;2023-04-06T02:31:21;6.35;;;5.60;;
28028;SDS011;15345;59.364;18.016;2023-04-06T02:32:40;9.07;;;5.82;;
28028;SDS011;15345;59.364;18.016;2023-04-06T02:33:59;8.23;;;5.63;;
28028;SDS011;15345;59.364;18.016;2023-04-06T02:35:18;8.80;;;5.35;;
28028;SDS011;15345;59.364;18.016;2023-04-06T02:36:37;9.95;;;5.22;;
28028;SDS011;15345;59.364;18.016;2023-04-06T02:37:56;9.57;;;5.80;;
28028;SDS011;15345;59.364;18.016;2023-04-06T02:39:15;10.38;;;5.72;;
28028;SDS011;15345;59.364;18.016;2023-04-06T02:40:34;8.32;;;5.63;;
28028;SDS011;15345;59.364;18.016;2023-04-06T02:41:53;11.80;;;6.13;;
28028;SDS011;15345;59.364;18.016;2023-04-06T02:43:12;6.40;;;5.30;;
28028;SDS011;15345;59.364;18.016;2023-04-06T02:44:30;10.68;;;5.32;;
28028;SDS011;15345;59.364;18.016;2023-04-06T02:45:49;5.72;;;5.15;;
28028;SDS011;15345;59.364;18.016;2023-04-06T02:47:09;10.18;;;5.20;;
28028;SDS011;15345;59.364;18.016;2023-04-06T02:48:28;6.55;;;5.45;;
28028;SDS011;15345;59.364;18.016;2023-04-06T02:49:47;5.70;;;5.10;;
28028;SDS011;15345;59.364;18.016;2023-04-06T02:51:06;7.97;;;5.18;;
28028;SDS011;15345;59.364;18.016;2023-04-06T02:52:25;10.60;;;5.78;;
28028;SDS011;15345;59.364;18.016;2023-04-06T02:53:44;6.97;;;5.00;;
28028;SDS011;15345;59.364;18.016;2023-04-06T02:55:03;12.68;;;7.18;;
28028;SDS011;15345;59.364;18.016;2023-04-06T02:56:22;6.90;;;5.20;;
28028;SDS011;15345;59.364;18.016;2023-04-06T02:57:41;8.52;;;6.00;;
28028;SDS011;15345;59.364;18.016;2023-04-06T02:59:00;8.55;;;5.28;;
28028;SDS011;15345;59.364;18.016;2023-04-06T03:00:19;6.43;;;5.18;;
28028;SDS011;15345;59.364;18.016;2023-04-06T03:01:38;6.25;;;5.60;;
28028;SDS011;15345;59.364;18.016;2023-04-06T03:02:57;9.77;;;5.43;;
28028;SDS011;15345;59.364;18.016;2023-04-06T03:04:15;7.55;;;5.30;;
28028;SDS011;15345;59.364;18.016;2023-04-06T03:05:35;5.72;;;5.13;;
28028;SDS011;15345;59.364;18.016;2023-04-06T03:06:54;9.68;;;5.20;;
28028;SDS011;15345;59.364;18.016;2023-04-06T03:08:13;8.75;;;5.35;;
28028;SDS011;15345;59.364;18.016;2023-04-06T03:09:32;7.55;;;5.43;;
28028;SDS011;15345;59.364;18.016;2023-04-06T03:10:52;9.05;;;5.40;;
28028;SDS011;15345;59.364;18.016;2023-04-06T03:12:11;6.15;;;5.10;;
28028;SDS011;15345;59.364;18.016;2023-04-06T03:13:30;5.40;;;4.63;;
28028;SDS011;15345;59.364;18.016;2023-04-06T03:14:49;6.90;;;5.28;;
28028;SDS011;15345;59.364;18.016;2023-04-06T03:16:08;9.80;;;5.15;;
28028;SDS011;15345;59.364;18.016;2023-04-06T03:17:27;7.72;;;5.18;;
28028;SDS011;15345;59.364;18.016;2023-04-06T03:18:46;8.00;;;5.10;;
28028;SDS011;15345;59.364;18.016;2023-04-06T03:20:05;7.78;;;5.15;;
28028;SDS011;15345;59.364;18.016;2023-04-06T03:21:24;6.75;;;5.65;;
28028;SDS011;15345;59.364;18.016;2023-04-06T03:22:43;5.82;;;5.03;;
28028;SDS011;15345;59.364;18.016;2023-04-06T03:24:02;9.73;;;5.20;;
28028;SDS011;15345;59.364;18.016;2023-04-06T03:25:21;8.13;;;5.15;;
28028;SDS011;15345;59.364;18.016;2023-04-06T03:26:40;8.13;;;5.38;;
28028;SDS011;15345;59.364;18.016;2023-04-06T03:27:59;5.07;;;4.60;;
28028;SDS011;15345;59.364;18.016;2023-04-06T03:29:18;7.55;;;5.25;;
28028;SDS011;15345;59.364;18.016;2023-04-06T03:30:37;7.97;;;5.28;;
28028;SDS011;15345;59.364;18.016;2023-04-06T03:31:55;8.23;;;5.68;;
28028;SDS011;15345;59.364;18.016;2023-04-06T03:33:14;7.53;;;5.43;;
28028;SDS011;15345;59.364;18.016;2023-04-06T03:34:34;10.57;;;6.10;;
28028;SDS011;15345;59.364;18.016;2023-04-06T03:35:53;8.80;;;5.00;;
28028;SDS011;15345;59.364;18.016;2023-04-06T03:37:12;7.03;;;5.13;;
28028;SDS011;15345;59.364;18.016;2023-04-06T03:38:31;7.28;;;5.07;;
28028;SDS011;15345;59.364;18.016;2023-04-06T03:39:50;6.05;;;4.90;;
28028;SDS011;15345;59.364;18.016;2023-04-06T03:41:09;10.45;;;5.38;;
28028;SDS011;15345;59.364;18.016;2023-04-06T03:42:28;6.82;;;5.53;;
28028;SDS011;15345;59.364;18.016;2023-04-06T03:43:47;9.52;;;5.28;;
28028;SDS011;15345;59.364;18.016;2023-04-06T03:45:06;8.52;;;5.35;;
28028;SDS011;15345;59.364;18.016;2023-04-06T03:46:25;6.55;;;5.45;;
28028;SDS011;15345;59.364;18.016;2023-04-06T03:47:45;7.00;;;5.40;;
28028;SDS011;15345;59.364;18.016;2023-04-06T03:49:04;7.35;;;5.57;;
28028;SDS011;15345;59.364;18.016;2023-04-06T03:50:23;15.30;;;6.07;;
28028;SDS011;15345;59.364;18.016;2023-04-06T03:51:42;10.05;;;5.57;;
28028;SDS011;15345;59.364;18.016;2023-04-06T03:53:01;7.57;;;5.43;;
28028;SDS011;15345;59.364;18.016;2023-04-06T03:54:21;9.85;;;5.45;;
28028;SDS011;15345;59.364;18.016;2023-04-06T03:55:40;7.60;;;5.38;;
28028;SDS011;15345;59.364;18.016;2023-04-06T03:56:59;7.30;;;5.75;;
28028;SDS011;15345;59.364;18.016;2023-04-06T03:58:18;8.77;;;5.45;;
28028;SDS011;15345;59.364;18.016;2023-04-06T03:59:38;5.63;;;5.13;;
28028;SDS011;15345;59.364;18.016;2023-04-06T04:00:57;6.20;;;5.45;;
28028;SDS011;15345;59.364;18.016;2023-04-06T04:02:16;7.72;;;5.55;;
28028;SDS011;15345;59.364;18.016;2023-04-06T04:03:35;7.40;;;5.32;;
28028;SDS011;15345;59.364;18.016;2023-04-06T04:04:54;6.88;;;5.72;;
28028;SDS011;15345;59.364;18.016;2023-04-06T04:06:13;7.20;;;5.70;;
28028;SDS011;15345;59.364;18.016;2023-04-06T04:07:32;8.25;;;5.55;;
28028;SDS011;15345;59.364;18.016;2023-04-06T04:08:51;7.93;;;5.53;;
28028;SDS011;15345;59.364;18.016;2023-04-06T04:10:10;9.05;;;5.35;;
28028;SDS011;15345;59.364;18.016;2023-04-06T04:11:28;5.95;;;5.35;;
28028;SDS011;15345;59.364;18.016;2023-04-06T04:12:47;8.88;;;5.72;;
28028;SDS011;15345;59.364;18.016;2023-04-06T04:14:06;7.40;;;5.45;;
28028;SDS011;15345;59.364;18.016;2023-04-06T04:15:25;8.63;;;5.03;;
28028;SDS011;15345;59.364;18.016;2023-04-06T04:16:44;6.93;;;5.63;;
28028;SDS011;15345;59.364;18.016;2023-04-06T04:18:03;8.20;;;5.10;;
28028;SDS011;15345;59.364;18.016;2023-04-06T04:19:22;11.30;;;5.40;;
28028;SDS011;15345;59.364;18.016;2023-04-06T04:20:41;7.20;;;5.10;;
28028;SDS011;15345;59.364;18.016;2023-04-06T04:21:59;7.30;;;5.18;;
28028;SDS011;15345;59.364;18.016;2023-04-06T04:23:19;8.35;;;5.72;;
28028;SDS011;15345;59.364;18.016;2023-04-06T04:24:38;7.07;;;5.38;;
28028;SDS011;15345;59.364;18.016;2023-04-06T04:25:57;9.48;;;5.45;;
28028;SDS011;15345;59.364;18.016;2023-04-06T04:27:16;9.80;;;5.43;;
28028;SDS011;15345;59.364;18.016;2023-04-06T04:28:35;9.25;;;5.50;;
28028;SDS011;15345;59.364;18.016;2023-04-06T04:29:54;6.05;;;5.32;;
28028;SDS011;15345;59.364;18.016;2023-04-06T04:31:13;8.80;;;5.60;;
28028;SDS011;15345;59.364;18.016;2023-04-06T04:32:32;7.63;;;5.25;;
28028;SDS011;15345;59.364;18.016;2023-04-06T04:33:50;5.78;;;5.20;;
28028;SDS011;15345;59.364;18.016;2023-04-06T04:35:09;8.18;;;5.57;;
28028;SDS011;15345;59.364;18.016;2023-04-06T04:36:28;7.70;;;5.38;;
28028;SDS011;15345;59.364;18.016;2023-04-06T04:37:47;6.38;;;5.05;;
28028;SDS011;15345;59.364;18.016;2023-04-06T04:39:06;8.05;;;5.45;;
28028;SDS011;15345;59.364;18.016;2023-04-06T04:40:25;5.53;;;4.97;;
28028;SDS011;15345;59.364;18.016;2023-04-06T04:41:44;7.43;;;5.75;;
28028;SDS011;15345;59.364;18.016;2023-04-06T04:43:03;6.68;;;5.07;;
28028;SDS011;15345;59.364;18.016;2023-04-06T04:44:22;6.72;;;5.18;;
28028;SDS011;15345;59.364;18.016;2023-04-06T04:45:41;7.15;;;5.10;;
28028;SDS011;15345;59.364;18.016;2023-04-06T04:47:00;6.55;;;5.63;;
28028;SDS011;15345;59.364;18.016;2023-04-06T04:48:19;10.50;;;5.35;;
28028;SDS011;15345;59.364;18.016;2023-04-06T04:49:38;9.73;;;5.80;;
28028;SDS011;15345;59.364;18.016;2023-04-06T04:50:57;9.35;;;5.22;;
28028;SDS011;15345;59.364;18.016;2023-04-06T04:52:16;7.00;;;5.82;;
28028;SDS011;15345;59.364;18.016;2023-04-06T04:53:35;7.78;;;5.40;;
28028;SDS011;15345;59.364;18.016;2023-04-06T04:54:54;6.05;;;4.85;;
28028;SDS011;15345;59.364;18.016;2023-04-06T04:56:13;6.10;;;4.97;;
28028;SDS011;15345;59.364;18.016;2023-04-06T04:57:32;5.82;;;5.25;;
28028;SDS011;15345;59.364;18.016;2023-04-06T04:58:51;7.28;;;5.55;;
28028;SDS011;15345;59.364;18.016;2023-04-06T05:00:10;6.72;;;5.40;;
28028;SDS011;15345;59.364;18.016;2023-04-06T05:01:29;7.03;;;4.82;;
28028;SDS011;15345;59.364;18.016;2023-04-06T05:02:48;5.53;;;4.88;;
28028;SDS011;15345;59.364;18.016;2023-04-06T05:04:07;5.93;;;4.75;;
28028;SDS011;15345;59.364;18.016;2023-04-06T05:05:26;6.90;;;4.80;;
28028;SDS011;15345;59.364;18.016;2023-04-06T05:06:45;6.68;;;5.25;;
28028;SDS011;15345;59.364;18.016;2023-04-06T05:08:04;8.52;;;4.70;;
28028;SDS011;15345;59.364;18.016;2023-04-06T05:09:23;9.32;;;5.82;;
28028;SDS011;15345;59.364;18.016;2023-04-06T05:10:42;5.38;;;4.72;;
28028;SDS011;15345;59.364;18.016;2023-04-06T05:12:01;6.70;;;5.13;;
28028;SDS011;15345;59.364;18.016;2023-04-06T05:13:21;5.72;;;5.15;;
28028;SDS011;15345;59.364;18.016;2023-04-06T05:14:40;5.38;;;4.85;;
28028;SDS011;15345;59.364;18.016;2023-04-06T05:15:59;7.25;;;5.20;;
28028;SDS011;15345;59.364;18.016;2023-04-06T05:17:18;7.03;;;5.22;;
28028;SDS011;15345;59.364;18.016;2023-04-06T05:18:37;7.32;;;5.55;;
28028;SDS011;15345;59.364;18.016;2023-04-06T05:19:56;6.40;;;4.57;;
28028;SDS011;15345;59.364;18.016;2023-04-06T05:21:15;7.28;;;4.93;;
28028;SDS011;15345;59.364;18.016;2023-04-06T05:22:33;5.18;;;4.78;;
28028;SDS011;15345;59.364;18.016;2023-04-06T05:23:52;6.03;;;5.35;;
28028;SDS011;15345;59.364;18.016;2023-04-06T05:25:12;7.28;;;5.25;;
28028;SDS011;15345;59.364;18.016;2023-04-06T05:26:32;7.00;;;4.95;;
28028;SDS011;15345;59.364;18.016;2023-04-06T05:27:51;7.30;;;4.63;;
28028;SDS011;15345;59.364;18.016;2023-04-06T05:29:10;5.47;;;4.80;;
28028;SDS011;15345;59.364;18.016;2023-04-06T05:30:29;7.13;;;4.90;;
28028;SDS011;15345;59.364;18.016;2023-04-06T05:31:48;6.60;;;5.18;;
28028;SDS011;15345;59.364;18.016;2023-04-06T05:33:10;10.13;;;4.85;;
28028;SDS011;15345;59.364;18.016;2023-04-06T05:34:29;6.63;;;4.45;;
28028;SDS011;15345;59.364;18.016;2023-04-06T05:35:48;7.20;;;4.95;;
28028;SDS011;15345;59.364;18.016;2023-04-06T05:37:07;6.43;;;4.90;;
28028;SDS011;15345;59.364;18.016;2023-04-06T05:38:25;5.50;;;4.57;;
28028;SDS011;15345;59.364;18.016;2023-04-06T05:39:44;7.53;;;4.63;;
28028;SDS011;15345;59.364;18.016;2023-04-06T05:41:03;7.43;;;4.60;;
28028;SDS011;15345;59.364;18.016;2023-04-06T05:42:22;4.78;;;4.38;;
28028;SDS011;15345;59.364;18.016;2023-04-06T05:43:41;5.63;;;4.40;;
28028;SDS011;15345;59.364;18.016;2023-04-06T05:45:03;5.50;;;4.80;;
28028;SDS011;15345;59.364;18.016;2023-04-06T05:46:22;5.25;;;4.03;;
28028;SDS011;15345;59.364;18.016;2023-04-06T05:47:42;5.18;;;4.68;;
28028;SDS011;15345;59.364;18.016;2023-04-06T05:49:01;6.70;;;4.43;;
28028;SDS011;15345;59.364;18.016;2023-04-06T05:50:20;4.35;;;3.70;;
28028;SDS011;15345;59.364;18.016;2023-04-06T05:51:39;5.07;;;4.57;;
28028;SDS011;15345;59.364;18.016;2023-04-06T05:52:58;6.72;;;4.55;;
28028;SDS011;15345;59.364;18.016;2023-04-06T05:54:17;4.60;;;4.20;;
28028;SDS011;15345;59.364;18.016;2023-04-06T05:55:36;6.25;;;4.00;;
28028;SDS011;15345;59.364;18.016;2023-04-06T05:56:55;4.50;;;4.05;;
28028;SDS011;15345;59.364;18.016;2023-04-06T05:58:13;4.25;;;3.85;;
28028;SDS011;15345;59.364;18.016;2023-04-06T05:59:32;5.50;;;4.05;;
28028;SDS011;15345;59.364;18.016;2023-04-06T06:00:56;8.98;;;5.18;;
28028;SDS011;15345;59.364;18.016;2023-04-06T06:02:15;4.53;;;4.15;;
28028;SDS011;15345;59.364;18.016;2023-04-06T06:03:34;4.18;;;3.85;;
28028;SDS011;15345;59.364;18.016;2023-04-06T06:04:53;4.18;;;3.88;;
28028;SDS011;15345;59.364;18.016;2023-04-06T06:06:12;4.20;;;3.80;;
28028;SDS011;15345;59.364;18.016;2023-04-06T06:07:31;3.78;;;3.47;;
28028;SDS011;15345;59.364;18.016;2023-04-06T06:08:50;4.70;;;4.25;;
28028;SDS011;15345;59.364;18.016;2023-04-06T06:10:09;4.72;;;3.55;;
28028;SDS011;15345;59.364;18.016;2023-04-06T06:11:28;4.50;;;3.97;;
28028;SDS011;15345;59.364;18.016;2023-04-06T06:12:47;8.05;;;4.28;;
28028;SDS011;15345;59.364;18.016;2023-04-06T06:14:06;5.93;;;4.15;;
28028;SDS011;15345;59.364;18.016;2023-04-06T06:15:24;4.70;;;4.30;;
28028;SDS011;15345;59.364;18.016;2023-04-06T06:16:43;4.43;;;4.03;;
28028;SDS011;15345;59.364;18.016;2023-04-06T06:18:05;4.28;;;3.90;;
28028;SDS011;15345;59.364;18.016;2023-04-06T06:19:24;3.95;;;3.47;;
28028;SDS011;15345;59.364;18.016;2023-04-06T06:20:43;4.25;;;3.88;;
28028;SDS011;15345;59.364;18.016;2023-04-06T06:22:02;3.58;;;3.28;;
28028;SDS011;15345;59.364;18.016;2023-04-06T06:23:21;3.88;;;3.58;;
28028;SDS011;15345;59.364;18.016;2023-04-06T06:24:40;5.78;;;3.13;;
28028;SDS011;15345;59.364;18.016;2023-04-06T06:25:59;3.85;;;3.55;;
28028;SDS011;15345;59.364;18.016;2023-04-06T06:27:19;3.28;;;3.00;;
28028;SDS011;15345;59.364;18.016;2023-04-06T06:28:38;3.90;;;3.42;;
28028;SDS011;15345;59.364;18.016;2023-04-06T06:29:57;3.60;;;3.20;;
28028;SDS011;15345;59.364;18.016;2023-04-06T06:31:16;5.90;;;3.22;;
28028;SDS011;15345;59.364;18.016;2023-04-06T06:32:35;3.95;;;3.17;;
28028;SDS011;15345;59.364;18.016;2023-04-06T06:33:54;4.80;;;3.40;;
28028;SDS011;15345;59.364;18.016;2023-04-06T06:35:13;4.03;;;3.10;;
28028;SDS011;15345;59.364;18.016;2023-04-06T06:36:33;3.65;;;3.20;;
28028;SDS011;15345;59.364;18.016;2023-04-06T06:37:52;4.72;;;3.15;;
28028;SDS011;15345;59.364;18.016;2023-04-06T06:39:11;4.43;;;3.17;;
28028;SDS011;15345;59.364;18.016;2023-04-06T06:40:30;4.68;;;3.35;;
28028;SDS011;15345;59.364;18.016;2023-04-06T06:41:49;3.53;;;3.28;;
28028;SDS011;15345;59.364;18.016;2023-04-06T06:43:08;10.75;;;3.20;;
28028;SDS011;15345;59.364;18.016;2023-04-06T06:44:28;3.20;;;2.90;;
28028;SDS011;15345;59.364;18.016;2023-04-06T06:45:47;3.30;;;3.00;;
28028;SDS011;15345;59.364;18.016;2023-04-06T06:47:06;3.85;;;3.30;;
28028;SDS011;15345;59.364;18.016;2023-04-06T06:48:25;3.67;;;3.25;;
28028;SDS011;15345;59.364;18.016;2023-04-06T06:49:44;3.10;;;2.80;;
28028;SDS011;15345;59.364;18.016;2023-04-06T06:51:03;4.68;;;2.85;;
28028;SDS011;15345;59.364;18.016;2023-04-06T06:52:22;3.10;;;2.80;;
28028;SDS011;15345;59.364;18.016;2023-04-06T06:53:42;3.38;;;3.00;;
28028;SDS011;15345;59.364;18.016;2023-04-06T06:55:01;3.42;;;3.13;;
28028;SDS011;15345;59.364;18.016;2023-04-06T06:56:20;3.17;;;2.97;;
28028;SDS011;15345;59.364;18.016;2023-04-06T06:57:39;3.97;;;3.60;;
28028;SDS011;15345;59.364;18.016;2023-04-06T06:59:01;3.60;;;3.30;;
28028;SDS011;15345;59.364;18.016;2023-04-06T07:00:19;3.45;;;2.95;;
28028;SDS011;15345;59.364;18.016;2023-04-06T07:01:41;4.87;;;2.80;;
28028;SDS011;15345;59.364;18.016;2023-04-06T07:03:00;3.97;;;2.78;;
28028;SDS011;15345;59.364;18.016;2023-04-06T07:04:19;3.65;;;2.92;;
28028;SDS011;15345;59.364;18.016;2023-04-06T07:05:45;2.90;;;2.60;;
28028;SDS011;15345;59.364;18.016;2023-04-06T07:07:08;4.18;;;3.00;;
28028;SDS011;15345;59.364;18.016;2023-04-06T07:08:27;3.35;;;2.90;;
28028;SDS011;15345;59.364;18.016;2023-04-06T07:09:46;3.28;;;3.08;;
28028;SDS011;15345;59.364;18.016;2023-04-06T07:11:05;5.97;;;3.15;;
28028;SDS011;15345;59.364;18.016;2023-04-06T07:12:24;4.35;;;3.22;;
28028;SDS011;15345;59.364;18.016;2023-04-06T07:13:42;3.70;;;3.20;;
28028;SDS011;15345;59.364;18.016;2023-04-06T07:15:01;2.83;;;2.63;;
28028;SDS011;15345;59.364;18.016;2023-04-06T07:16:20;3.72;;;3.35;;
28028;SDS011;15345;59.364;18.016;2023-04-06T07:17:39;4.70;;;2.88;;
28028;SDS011;15345;59.364;18.016;2023-04-06T07:19:04;4.53;;;3.05;;
28028;SDS011;15345;59.364;18.016;2023-04-06T07:20:22;3.42;;;3.03;;
28028;SDS011;15345;59.364;18.016;2023-04-06T07:21:41;4.65;;;3.42;;
28028;SDS011;15345;59.364;18.016;2023-04-06T07:23:00;3.17;;;2.97;;
28028;SDS011;15345;59.364;18.016;2023-04-06T07:24:21;3.63;;;3.33;;
28028;SDS011;15345;59.364;18.016;2023-04-06T07:25:40;4.82;;;3.15;;
28028;SDS011;15345;59.364;18.016;2023-04-06T07:26:59;2.95;;;2.60;;
28028;SDS011;15345;59.364;18.016;2023-04-06T07:28:21;3.92;;;3.53;;
28028;SDS011;15345;59.364;18.016;2023-04-06T07:29:40;3.30;;;3.10;;
28028;SDS011;15345;59.364;18.016;2023-04-06T07:30:59;3.08;;;2.78;;
28028;SDS011;15345;59.364;18.016;2023-04-06T07:32:19;4.53;;;3.10;;
28028;SDS011;15345;59.364;18.016;2023-04-06T07:33:38;3.15;;;2.92;;
28028;SDS011;15345;59.364;18.016;2023-04-06T07:34:57;3.30;;;2.88;;
28028;SDS011;15345;59.364;18.016;2023-04-06T07:36:16;3.53;;;3.20;;
28028;SDS011;15345;59.364;18.016;2023-04-06T07:37:35;2.72;;;2.50;;
28028;SDS011;15345;59.364;18.016;2023-04-06T07:38:54;4.15;;;3.08;;
28028;SDS011;15345;59.364;18.016;2023-04-06T07:40:13;3.13;;;2.90;;
28028;SDS011;15345;59.364;18.016;2023-04-06T07:41:32;3.38;;;3.13;;
28028;SDS011;15345;59.364;18.016;2023-04-06T07:42:51;2.47;;;2.35;;
28028;SDS011;15345;59.364;18.016;2023-04-06T07:44:10;3.40;;;3.03;;
28028;SDS011;15345;59.364;18.016;2023-04-06T07:45:29;3.10;;;2.70;;
28028;SDS011;15345;59.364;18.016;2023-04-06T07:46:48;2.92;;;2.63;;
28028;SDS011;15345;59.364;18.016;2023-04-06T07:48:07;3.40;;;3.10;;
28028;SDS011;15345;59.364;18.016;2023-04-06T07:49:26;3.33;;;2.45;;